Time;durP1;ratioP1;P1;durP2;ratioP2;P2;SDS_P1;SDS_P2;PMS_P1;PMS_P2;Temp;Humidity;BMP_temperature;BMP_pressure;BME280_temperature;BME280_humidity;BME280_pressure;Samples;Min_cycle;Max_cycle;Signal;HPM_P1;HPM_P2
2021/12/05 00:18:36;;;;;;;0.50;0.50;;;;;;;3.61;100.00;95202.13;5049984;28;20209;-85
2021/12/05 00:23:59;;;;;;;0.67;0.60;;;;;;;3.64;100.00;95207.88;5056928;28;20228;-86
2021/12/05 00:26:27;;;;;;;0.40;0.40;;;;;;;3.63;100.00;95195.56;5080266;28;20215;-86
2021/12/05 00:29:08;;;;;;;0.50;0.50;;;;;;;3.57;100.00;95196.41;5050990;28;20233;-85
2021/12/05 00:31:56;;;;;;;0.60;0.60;;;;;;;3.53;100.00;95195.19;5060582;28;20202;-86
2021/12/05 00:34:45;;;;;;;0.57;0.57;;;;;;;3.58;100.00;95200.69;5068207;28;20252;-85
2021/12/05 00:38:04;;;;;;;1.70;0.60;;;;;;;3.58;100.00;95198.03;5058735;28;20226;-85
2021/12/05 00:46:29;;;;;;;0.93;0.67;;;;;;;3.61;100.00;95192.28;5057495;28;20210;-85
2021/12/05 00:57:48;;;;;;;0.50;0.50;;;;;;;3.61;100.00;95175.44;5078455;27;20573;-85
2021/12/05 01:03:29;;;;;;;2.77;0.80;;;;;;;3.62;100.00;95182.41;5015120;28;20206;-85
2021/12/05 01:06:41;;;;;;;2.10;0.80;;;;;;;3.58;100.00;95174.00;5056804;28;20298;-86
2021/12/05 01:09:20;;;;;;;0.63;0.63;;;;;;;3.59;100.00;95174.81;5075529;28;20198;-85
2021/12/05 01:12:12;;;;;;;0.70;0.70;;;;;;;3.63;100.00;95178.72;5051629;28;20224;-85
2021/12/05 01:14:57;;;;;;;1.10;0.70;;;;;;;3.55;100.00;95171.78;5059734;28;20201;-85
2021/12/05 01:17:32;;;;;;;1.27;0.60;;;;;;;3.48;100.00;95170.19;5059298;28;20221;-86
2021/12/05 01:20:02;;;;;;;0.70;0.70;;;;;;;3.45;100.00;95171.44;5071437;28;20209;-85
2021/12/05 01:22:35;;;;;;;1.77;0.80;;;;;;;3.39;100.00;95166.97;5056487;28;20221;-85
2021/12/05 01:25:15;;;;;;;1.90;1.33;;;;;;;3.34;100.00;95164.09;5056388;28;20236;-85
2021/12/05 01:27:48;;;;;;;1.10;0.80;;;;;;;3.26;100.00;95167.03;5061516;28;20202;-86
2021/12/05 01:30:27;;;;;;;1.80;0.80;;;;;;;3.25;100.00;95181.38;5060765;28;20206;-86
2021/12/05 01:33:03;;;;;;;0.60;0.60;;;;;;;3.23;100.00;95180.81;5087779;28;20276;-85
2021/12/05 01:35:49;;;;;;;0.70;0.70;;;;;;;3.19;100.00;95171.59;5086626;28;20221;-86
2021/12/05 01:38:27;;;;;;;0.60;0.60;;;;;;;3.05;100.00;95165.50;5054842;28;20270;-85
2021/12/05 01:49:58;;;;;;;0.87;0.80;;;;;;;3.03;100.00;95173.72;5058509;28;20214;-85
2021/12/05 01:55:45;;;;;;;0.80;0.80;;;;;;;3.03;100.00;95176.38;5042144;28;20202;-85
2021/12/05 01:58:26;;;;;;;1.00;0.70;;;;;;;3.06;100.00;95179.66;5028923;28;20203;-86
2021/12/05 02:09:49;;;;;;;0.97;0.80;;;;;;;3.00;100.00;95155.47;5023131;28;20294;-86
2021/12/05 02:15:09;;;;;;;0.80;0.80;;;;;;;2.96;100.00;95151.59;5055803;28;20202;-85
2021/12/05 02:15:40;;;;;;;3.30;0.80;;;;;;;2.89;100.00;95128.66;5018941;28;20202;-86
2021/12/05 02:29:42;;;;;;;0.80;0.80;;;;;;;2.88;100.00;95122.50;5025925;28;20214;-86
2021/12/05 02:35:26;;;;;;;2.30;0.70;;;;;;;2.90;100.00;95128.44;4952161;28;20533;-85
2021/12/05 02:38:14;;;;;;;1.27;0.87;;;;;;;2.85;100.00;95128.25;5052224;28;20239;-85
2021/12/05 02:41:06;;;;;;;0.70;0.70;;;;;;;2.78;100.00;95121.31;5028470;28;20207;-86
2021/12/05 02:43:39;;;;;;;0.77;0.70;;;;;;;2.71;100.00;95107.22;5020256;28;20207;-86
2021/12/05 02:46:09;;;;;;;0.70;0.70;;;;;;;2.72;100.00;95100.88;5039044;28;20458;-86
2021/12/05 02:48:38;;;;;;;1.67;0.90;;;;;;;2.71;100.00;95101.88;5023414;28;20207;-85
2021/12/05 02:51:11;;;;;;;1.80;1.40;;;;;;;2.74;100.00;95107.59;5045443;28;20203;-85
2021/12/05 02:53:44;;;;;;;3.43;1.20;;;;;;;2.74;100.00;95098.78;5025276;28;20213;-85
2021/12/05 02:56:13;;;;;;;7.13;1.23;;;;;;;2.82;100.00;95102.03;5026919;28;20231;-86
2021/12/05 02:58:44;;;;;;;0.80;0.70;;;;;;;2.81;100.00;95112.88;5055387;28;20203;-86
2021/12/05 03:01:19;;;;;;;2.63;0.70;;;;;;;2.76;100.00;95088.72;5059651;28;20281;-85
2021/12/05 03:03:47;;;;;;;2.27;1.00;;;;;;;2.78;100.00;95103.50;5038289;28;20206;-85
2021/12/05 03:06:19;;;;;;;2.53;0.73;;;;;;;2.75;100.00;95095.91;5056573;28;20215;-85
2021/12/05 03:08:51;;;;;;;1.50;0.80;;;;;;;2.73;100.00;95087.28;5018283;28;20238;-85
2021/12/05 03:11:20;;;;;;;0.80;0.80;;;;;;;2.76;100.00;95091.41;5061768;28;20257;-85
2021/12/05 03:13:48;;;;;;;1.70;0.77;;;;;;;2.75;100.00;95085.25;5020843;28;20254;-85
2021/12/05 03:16:21;;;;;;;0.70;0.60;;;;;;;2.81;100.00;95096.91;5017908;28;20230;-85
2021/12/05 03:18:48;;;;;;;0.60;0.60;;;;;;;2.74;100.00;95086.28;5038977;28;20214;-86
2021/12/05 03:21:19;;;;;;;3.13;0.77;;;;;;;2.72;100.00;95101.69;5058395;28;20202;-85
2021/12/05 03:23:50;;;;;;;0.70;0.70;;;;;;;2.73;100.00;95102.47;5037837;28;20219;-85
2021/12/05 03:26:20;;;;;;;0.70;0.67;;;;;;;2.76;100.00;95104.72;5039363;28;20195;-86
2021/12/05 03:28:50;;;;;;;0.80;0.80;;;;;;;2.71;100.00;95105.38;5018664;28;20524;-85
2021/12/05 03:31:19;;;;;;;2.27;0.90;;;;;;;2.71;100.00;95094.72;5026119;28;20474;-86
2021/12/05 03:33:50;;;;;;;1.73;0.90;;;;;;;2.72;100.00;95100.88;5032709;28;20195;-86
2021/12/05 03:36:19;;;;;;;1.87;1.20;;;;;;;2.69;100.00;95096.75;5056646;28;20215;-86
2021/12/05 03:38:48;;;;;;;1.17;0.70;;;;;;;2.78;100.00;95089.34;5036088;28;20272;-86
2021/12/05 03:41:16;;;;;;;0.70;0.70;;;;;;;2.79;100.00;95086.47;5042453;28;20211;-86
2021/12/05 03:43:51;;;;;;;1.70;0.80;;;;;;;2.77;100.00;95095.69;5025362;28;20224;-85
2021/12/05 03:46:19;;;;;;;0.60;0.60;;;;;;;2.76;100.00;95099.38;5054788;28;20515;-85
2021/12/05 03:48:49;;;;;;;0.93;0.83;;;;;;;2.80;100.00;95098.78;5026495;28;20211;-86
2021/12/05 03:51:20;;;;;;;1.63;0.70;;;;;;;2.78;100.00;95097.34;5053118;28;20273;-85
2021/12/05 03:53:51;;;;;;;1.30;0.67;;;;;;;2.77;100.00;95098.38;5038096;28;20241;-86
2021/12/05 03:56:21;;;;;;;2.93;0.77;;;;;;;2.72;100.00;95093.69;5023772;28;20238;-85
2021/12/05 03:58:50;;;;;;;1.47;0.90;;;;;;;2.72;100.00;95098.19;5031450;28;20206;-86
2021/12/05 04:01:18;;;;;;;0.60;0.60;;;;;;;2.69;100.00;95093.28;5042636;28;20202;-86
2021/12/05 04:03:49;;;;;;;0.80;0.80;;;;;;;2.70;100.00;95093.06;5038180;28;20199;-86
2021/12/05 04:06:21;;;;;;;3.10;0.70;;;;;;;2.73;100.00;95097.97;5025562;28;20198;-86
2021/12/05 04:08:50;;;;;;;0.73;0.73;;;;;;;2.71;100.00;95092.03;5024927;28;20249;-86
2021/12/05 04:11:24;;;;;;;0.90;0.87;;;;;;;2.71;100.00;95094.72;5039107;28;20211;-85
2021/12/05 04:13:53;;;;;;;1.07;0.80;;;;;;;2.74;100.00;95094.25;5043901;28;20267;-85
2021/12/05 04:16:21;;;;;;;0.80;0.80;;;;;;;2.77;100.00;95095.69;5023256;28;20221;-85
2021/12/05 04:18:49;;;;;;;1.50;0.70;;;;;;;2.71;100.00;95097.38;5018243;28;20202;-85
2021/12/05 04:21:18;;;;;;;2.07;1.00;;;;;;;2.64;100.00;95096.56;5056708;28;20203;-85
2021/12/05 04:23:48;;;;;;;2.27;1.30;;;;;;;2.61;100.00;95100.50;5025907;28;20226;-85
2021/12/05 04:26:21;;;;;;;4.30;1.00;;;;;;;2.65;100.00;95092.88;5038522;28;20203;-86
2021/12/05 04:28:48;;;;;;;1.67;1.00;;;;;;;2.66;100.00;95087.34;5054844;28;20199;-85
2021/12/05 04:31:20;;;;;;;0.80;0.80;;;;;;;2.68;100.00;95089.78;5035899;28;20206;-85
2021/12/05 04:33:48;;;;;;;1.30;0.90;;;;;;;2.66;100.00;95092.66;5022528;28;20214;-86
2021/12/05 04:36:17;;;;;;;1.20;1.10;;;;;;;2.66;100.00;95089.19;5026888;28;20229;-86
2021/12/05 04:38:44;;;;;;;1.60;1.10;;;;;;;2.66;100.00;95091.84;5019641;28;20198;-85
2021/12/05 04:41:12;;;;;;;1.87;1.00;;;;;;;2.74;100.00;95104.94;5022232;28;20207;-85
2021/12/05 04:43:41;;;;;;;2.03;1.40;;;;;;;2.70;100.00;95101.06;5022937;28;20198;-85
2021/12/05 04:46:13;;;;;;;3.20;1.00;;;;;;;2.65;100.00;95098.19;5016628;28;20223;-85
2021/12/05 04:48:43;;;;;;;0.87;0.83;;;;;;;2.61;100.00;95092.50;5024254;28;20210;-85
2021/12/05 04:51:10;;;;;;;1.17;1.00;;;;;;;2.72;100.00;95093.69;5056999;28;20203;-85
2021/12/05 04:53:38;;;;;;;4.40;1.00;;;;;;;2.71;100.00;95092.03;5032236;28;20206;-85
2021/12/05 04:56:07;;;;;;;0.90;0.90;;;;;;;2.69;100.00;95086.09;5027241;28;20280;-85
2021/12/05 04:58:34;;;;;;;0.80;0.80;;;;;;;2.65;100.00;95095.53;5036019;28;20210;-85
2021/12/05 05:01:04;;;;;;;3.70;0.90;;;;;;;2.63;100.00;95098.44;5020265;28;20230;-86
2021/12/05 05:03:32;;;;;;;1.10;0.90;;;;;;;2.59;100.00;95099.06;5033075;28;20274;-85
2021/12/05 05:06:04;;;;;;;2.30;1.20;;;;;;;2.52;100.00;95090.28;5019541;28;20227;-85
2021/12/05 05:08:32;;;;;;;1.77;0.80;;;;;;;2.57;100.00;95090.44;5039166;28;20230;-85
2021/12/05 05:10:59;;;;;;;0.97;0.90;;;;;;;2.65;100.00;95092.88;5031387;28;20206;-86
2021/12/05 05:13:27;;;;;;;2.17;1.00;;;;;;;2.60;100.00;95092.69;5014677;28;20254;-85
2021/12/05 05:15:54;;;;;;;0.87;0.80;;;;;;;2.58;100.00;95087.56;5018031;28;20199;-86
2021/12/05 05:18:26;;;;;;;1.63;0.93;;;;;;;2.57;100.00;95090.44;5033918;28;20254;-85
2021/12/05 05:21:00;;;;;;;1.57;1.10;;;;;;;2.52;100.00;95084.94;5036499;28;20285;-85
2021/12/05 05:23:40;;;;;;;1.50;0.80;;;;;;;2.54;100.00;95077.56;5019488;28;20214;-86
2021/12/05 05:45:49;;;;;;;3.27;1.07;;;;;;;2.54;100.00;95088.22;5038033;28;20227;-85
2021/12/05 05:48:31;;;;;;;1.10;0.80;;;;;;;2.56;100.00;95110.13;5025543;28;20236;-85
2021/12/05 05:51:00;;;;;;;1.70;1.40;;;;;;;2.54;100.00;95101.53;5032100;28;20210;-85
2021/12/05 05:53:27;;;;;;;1.43;1.00;;;;;;;2.58;100.00;95089.41;5059862;28;20207;-85
2021/12/05 05:55:56;;;;;;;2.27;1.17;;;;;;;2.56;100.00;95086.16;5025753;28;20311;-85
2021/12/05 05:58:27;;;;;;;2.63;1.50;;;;;;;2.53;100.00;95086.59;5025638;28;20227;-85
2021/12/05 06:01:02;;;;;;;3.03;1.30;;;;;;;2.55;100.00;95087.19;5044105;28;20195;-85
2021/12/05 06:03:30;;;;;;;1.37;1.20;;;;;;;2.53;100.00;95087.41;5025620;28;20206;-85
2021/12/05 06:05:59;;;;;;;1.40;1.27;;;;;;;2.59;100.00;95096.38;5023781;28;20195;-85
2021/12/05 06:08:30;;;;;;;1.73;1.20;;;;;;;2.57;100.00;95085.13;5027722;28;20199;-85
2021/12/05 06:11:00;;;;;;;1.63;1.00;;;;;;;2.63;100.00;95086.97;5026280;28;20199;-85
2021/12/05 06:13:28;;;;;;;1.50;1.13;;;;;;;2.55;100.00;95084.53;5040387;28;20199;-85
2021/12/05 06:15:57;;;;;;;3.43;1.20;;;;;;;2.57;100.00;95095.78;5047013;28;20202;-85
2021/12/05 06:18:25;;;;;;;2.43;1.30;;;;;;;2.60;100.00;95088.19;5040843;28;20223;-86
2021/12/05 06:20:54;;;;;;;2.83;1.40;;;;;;;2.65;100.00;95090.22;5013499;28;20204;-86
2021/12/05 06:23:21;;;;;;;2.47;1.23;;;;;;;2.63;100.00;95092.28;5026810;28;20234;-85
2021/12/05 06:25:51;;;;;;;2.90;1.33;;;;;;;2.55;100.00;95084.53;5044229;28;20452;-86
2021/12/05 06:28:26;;;;;;;3.90;1.30;;;;;;;2.55;100.00;95087.19;5036146;28;20212;-86
2021/12/05 06:30:58;;;;;;;1.50;1.40;;;;;;;2.55;100.00;95090.66;5061102;28;20217;-85
2021/12/05 06:47:14;;;;;;;2.57;0.90;;;;;;;2.50;100.00;95089.66;5020421;28;20234;-85
2021/12/05 06:49:43;;;;;;;1.33;0.90;;;;;;;2.45;100.00;95087.63;5024159;28;20207;-85
2021/12/05 06:52:10;;;;;;;2.33;0.90;;;;;;;2.52;100.00;95090.28;5017422;28;20200;-86
2021/12/05 06:54:39;;;;;;;2.27;1.00;;;;;;;2.50;100.00;95081.66;5027996;28;20203;-86
2021/12/05 06:57:16;;;;;;;2.13;1.17;;;;;;;2.41;100.00;95070.44;5042226;28;20240;-86
2021/12/05 06:59:45;;;;;;;9.17;2.93;;;;;;;2.45;100.00;95084.97;5037744;28;20221;-85
2021/12/05 07:02:15;;;;;;;4.97;3.13;;;;;;;2.44;100.00;95075.34;5023757;28;20243;-85
2021/12/05 07:05:01;;;;;;;2.50;1.40;;;;;;;2.47;100.00;95079.41;5038020;28;20211;-86
2021/12/05 07:07:32;;;;;;;9.57;5.17;;;;;;;2.52;100.00;95090.28;5025725;28;20203;-86
2021/12/05 07:09:59;;;;;;;1.93;1.67;;;;;;;2.51;100.00;95086.78;5056864;28;20206;-86
2021/12/05 07:15:16;;;;;;;2.47;1.37;;;;;;;2.58;100.00;95094.75;5022552;28;20203;-85
2021/12/05 07:20:47;;;;;;;1.73;1.13;;;;;;;2.52;100.00;95092.94;5016670;28;20218;-86
2021/12/05 07:23:26;;;;;;;4.27;1.63;;;;;;;2.54;100.00;95107.69;5042460;28;20202;-85
2021/12/05 07:26:07;;;;;;;9.43;3.73;;;;;;;2.57;100.00;95109.09;5041272;28;20210;-85
2021/12/05 07:42:38;;;;;;;1.50;1.40;;;;;;;2.70;100.00;95130.38;5005236;28;20341;-85
2021/12/05 07:45:09;;;;;;;1.90;1.63;;;;;;;2.71;100.00;95129.34;5019992;28;20222;-85
2021/12/05 07:47:39;;;;;;;2.10;1.40;;;;;;;2.72;100.00;95130.19;5025210;28;20195;-85
2021/12/05 07:50:10;;;;;;;4.10;1.60;;;;;;;2.71;100.00;95132.03;5049947;28;20297;-85
2021/12/05 07:52:41;;;;;;;7.07;3.60;;;;;;;2.73;100.00;95132.59;5021081;28;20211;-86
2021/12/05 07:55:17;;;;;;;9.17;6.30;;;;;;;2.74;100.00;95134.25;5020815;28;20207;-85
2021/12/05 07:58:01;;;;;;;7.73;5.77;;;;;;;2.75;100.00;95133.22;5021650;28;20222;-85
2021/12/05 08:00:36;;;;;;;8.80;3.83;;;;;;;2.77;100.00;95136.50;5021121;28;20207;-86
2021/12/05 08:14:27;;;;;;;4.93;2.17;;;;;;;2.68;100.00;95135.09;5039651;28;20207;-85
2021/12/05 08:16:56;;;;;;;6.43;3.47;;;;;;;2.68;100.00;95143.09;5034795;28;20226;-85
2021/12/05 08:19:24;;;;;;;6.00;2.73;;;;;;;2.64;100.00;95140.00;5054152;28;20207;-86
2021/12/05 08:21:55;;;;;;;6.30;2.27;;;;;;;2.70;100.00;95148.22;5027798;28;20294;-86
2021/12/05 08:24:23;;;;;;;6.63;4.33;;;;;;;2.78;100.00;95154.13;5025895;28;20221;-86
2021/12/05 08:26:51;;;;;;;5.17;2.33;;;;;;;2.67;100.00;95147.59;5036955;28;20290;-86
2021/12/05 08:29:26;;;;;;;2.47;1.30;;;;;;;2.68;100.00;95143.09;5024388;28;20210;-85
2021/12/05 08:32:07;;;;;;;2.60;1.03;;;;;;;2.65;100.00;95138.19;5023420;28;20604;-84
2021/12/05 08:34:47;;;;;;;1.43;1.00;;;;;;;2.63;100.00;95134.94;5021692;28;20233;-85
2021/12/05 08:46:22;;;;;;;3.20;1.50;;;;;;;2.87;100.00;95142.19;5011673;28;20253;-85
2021/12/05 09:22:29;;;;;;;3.73;1.30;;;;;;;3.24;100.00;95137.06;5043155;28;20241;-87
2021/12/05 09:25:14;;;;;;;4.47;1.87;;;;;;;3.24;100.00;95139.75;5044669;28;20206;-85
2021/12/05 09:30:58;;;;;;;3.83;1.60;;;;;;;3.29;100.00;95138.09;4986669;28;20234;-84
2021/12/05 09:39:48;;;;;;;3.00;1.57;;;;;;;3.09;100.00;95128.53;5047200;28;20376;-83
2021/12/05 10:02:11;;;;;;;3.40;1.40;;;;;;;3.47;100.00;95126.69;4965057;28;20262;-85
2021/12/05 10:07:41;;;;;;;3.30;1.40;;;;;;;3.55;100.00;95113.06;5019911;28;20198;-83
2021/12/05 10:10:21;;;;;;;2.87;1.50;;;;;;;3.62;100.00;95113.00;5030056;28;20322;-84
2021/12/05 10:13:13;;;;;;;3.77;1.67;;;;;;;3.47;100.00;95105.34;5042557;28;20213;-84
2021/12/05 10:15:57;;;;;;;4.93;1.40;;;;;;;3.35;100.00;95107.06;5057328;28;20203;-84
2021/12/05 10:18:55;;;;;;;7.60;1.47;;;;;;;3.29;100.00;95091.91;5048114;28;20236;-84
2021/12/05 10:35:52;;;;;;;1.73;1.03;;;;;;;3.72;100.00;95114.16;5042630;28;20302;-83
2021/12/05 10:38:24;;;;;;;1.10;1.00;;;;;;;3.70;100.00;95104.75;5039758;28;20238;-84
2021/12/05 10:41:01;;;;;;;2.67;1.17;;;;;;;3.64;100.00;95106.44;5026658;28;20214;-84
2021/12/05 10:43:33;;;;;;;3.07;1.40;;;;;;;3.66;100.00;95109.69;5018024;28;20258;-84
2021/12/05 10:46:07;;;;;;;3.63;1.20;;;;;;;3.72;100.00;95110.69;5024532;28;20222;-84
2021/12/05 10:48:38;;;;;;;2.90;1.50;;;;;;;3.77;100.00;95106.31;5024884;28;20207;-84
2021/12/05 10:51:07;;;;;;;3.57;1.50;;;;;;;3.74;100.00;95100.63;5056103;28;20226;-84
2021/12/05 10:53:39;;;;;;;5.57;1.57;;;;;;;3.76;100.00;95104.69;5028260;28;20240;-84
2021/12/05 10:56:14;;;;;;;1.60;1.00;;;;;;;3.83;100.00;95107.28;5021446;28;20235;-85
2021/12/05 10:58:52;;;;;;;1.30;1.20;;;;;;;3.82;100.00;95097.66;5025442;28;20238;-84
2021/12/05 11:01:31;;;;;;;2.67;1.30;;;;;;;3.87;100.00;95094.31;5055167;28;20207;-85
2021/12/05 11:04:02;;;;;;;1.60;1.00;;;;;;;3.92;100.00;95094.47;5024100;28;20206;-85
2021/12/05 11:06:39;;;;;;;3.07;1.53;;;;;;;3.95;100.00;95070.00;5023123;28;20207;-84
2021/12/05 11:09:11;;;;;;;2.53;1.10;;;;;;;4.08;100.00;95076.03;5023141;28;20211;-84
2021/12/05 11:11:40;;;;;;;3.63;1.40;;;;;;;4.19;100.00;95083.31;5049976;28;20222;-84
2021/12/05 11:14:13;;;;;;;1.50;1.20;;;;;;;4.23;100.00;95073.03;5023058;28;20297;-85
2021/12/05 11:16:48;;;;;;;3.03;1.10;;;;;;;4.33;100.00;95069.84;5059491;28;20284;-84
2021/12/05 11:19:22;;;;;;;2.97;1.10;;;;;;;4.53;100.00;95070.41;5014248;28;20248;-85
2021/12/05 11:22:12;;;;;;;;;;;;;;;;;;;;;
2021/12/05 11:24:52;;;;;;;2.33;1.00;;;;;;;4.70;100.00;95063.41;5029275;28;20202;-84
2021/12/05 11:27:24;;;;;;;5.37;1.13;;;;;;;4.86;100.00;95068.13;5042226;28;20215;-84
2021/12/05 11:30:10;;;;;;;2.77;1.10;;;;;;;4.99;100.00;95053.78;5033019;28;20278;-84
2021/12/05 11:32:42;;;;;;;1.53;1.10;;;;;;;5.20;100.00;95060.47;5026680;28;20202;-85
2021/12/05 11:35:21;;;;;;;1.77;1.00;;;;;;;5.07;100.00;95058.00;5027717;28;20274;-85
2021/12/05 11:37:59;;;;;;;1.33;1.00;;;;;;;5.05;100.00;95052.88;5018377;28;20212;-84
2021/12/05 11:40:28;;;;;;;2.27;1.20;;;;;;;4.97;100.00;95049.69;5052097;28;20234;-85
2021/12/05 11:43:01;;;;;;;1.80;1.20;;;;;;;4.82;100.00;95050.09;5024792;28;20229;-84
2021/12/05 11:45:31;;;;;;;1.53;1.00;;;;;;;4.92;100.00;95048.53;5037898;28;20239;-84
2021/12/05 11:48:18;;;;;;;2.77;1.03;;;;;;;5.19;100.00;95051.63;5017707;28;20208;-85
2021/12/05 11:50:46;;;;;;;3.90;1.00;;;;;;;5.29;100.00;95040.38;5026603;28;20202;-87
2021/12/05 11:53:13;;;;;;;2.30;1.27;;;;;;;5.59;99.67;95029.59;5018925;28;20465;-88
2021/12/05 11:55:41;;;;;;;0.93;0.90;;;;;;;5.91;99.65;95028.25;5023955;28;20238;-87
2021/12/05 11:58:17;;;;;;;2.23;1.40;;;;;;;6.01;99.60;95033.84;5018158;28;20214;-86
2021/12/05 12:00:45;;;;;;;2.90;1.37;;;;;;;5.97;100.00;95027.31;5048174;28;20248;-87
2021/12/05 12:03:16;;;;;;;3.20;1.37;;;;;;;5.85;99.58;95018.44;5023958;28;20203;-88
2021/12/05 12:05:44;;;;;;;1.60;1.27;;;;;;;5.86;98.05;95014.72;5033314;28;20212;-85
2021/12/05 12:08:12;;;;;;;3.40;1.50;;;;;;;5.64;98.78;95016.34;5048921;28;20204;-83
2021/12/05 12:10:43;;;;;;;3.97;1.50;;;;;;;5.33;98.63;95015.59;5023599;28;20204;-87
2021/12/05 12:13:13;;;;;;;2.47;1.63;;;;;;;5.25;100.00;95013.25;5041187;28;20207;-86
2021/12/05 12:15:58;;;;;;;2.37;1.53;;;;;;;5.31;100.00;95016.88;5049980;28;20207;-88
2021/12/05 12:18:33;;;;;;;2.17;1.60;;;;;;;5.32;100.00;95013.97;5026377;28;20233;-86
2021/12/05 12:21:04;;;;;;;2.37;1.63;;;;;;;5.10;100.00;95015.56;5019615;28;20288;-86
2021/12/05 12:23:33;;;;;;;4.50;1.90;;;;;;;4.99;100.00;95002.13;5021448;28;20203;-86
2021/12/05 12:26:04;;;;;;;3.27;1.60;;;;;;;4.88;100.00;95012.56;5034155;28;20202;-86
2021/12/05 12:28:32;;;;;;;2.40;1.70;;;;;;;4.83;100.00;94998.25;5030711;28;20401;-86
2021/12/05 12:31:03;;;;;;;2.93;1.10;;;;;;;4.89;100.00;94997.34;5018963;28;20268;-86
2021/12/05 12:33:36;;;;;;;2.87;1.10;;;;;;;4.86;100.00;95008.47;5040523;28;20203;-87
2021/12/05 12:36:05;;;;;;;3.93;1.30;;;;;;;4.73;100.00;94990.78;5032587;28;20281;-86
2021/12/05 12:38:41;;;;;;;4.67;1.30;;;;;;;4.80;100.00;94991.50;5020273;28;20233;-86
2021/12/05 12:41:15;;;;;;;2.57;1.67;;;;;;;4.81;100.00;95005.69;5041859;28;20210;-86
2021/12/05 12:43:48;;;;;;;1.90;1.10;;;;;;;4.81;100.00;94993.13;5025700;28;20203;-86
2021/12/05 12:46:30;;;;;;;1.67;1.20;;;;;;;4.84;100.00;94997.22;5039734;28;20263;-86
2021/12/05 12:49:21;;;;;;;1.30;1.10;;;;;;;4.90;100.00;94989.09;5019387;28;20195;-86
2021/12/05 12:51:54;;;;;;;1.77;1.33;;;;;;;4.91;100.00;94998.75;5024556;28;20217;-86
2021/12/05 12:54:28;;;;;;;1.97;0.90;;;;;;;4.99;100.00;95007.50;5017539;28;20207;-86
2021/12/05 12:57:08;;;;;;;4.60;0.90;;;;;;;4.98;100.00;95004.00;5040600;28;20290;-85
2021/12/05 12:59:55;;;;;;;3.63;1.53;;;;;;;4.98;100.00;95006.66;5040485;28;20219;-86
2021/12/05 13:02:37;;;;;;;2.03;1.37;;;;;;;4.79;100.00;94997.06;5030015;28;20215;-86
2021/12/05 13:05:34;;;;;;;1.87;1.07;;;;;;;4.71;100.00;95006.22;5015149;28;20278;-86
2021/12/05 13:11:01;;;;;;;3.13;1.97;;;;;;;4.71;100.00;95002.72;5028527;28;20523;-86
2021/12/05 13:13:32;;;;;;;1.43;1.00;;;;;;;4.72;100.00;95001.69;5024440;28;20210;-86
2021/12/05 13:16:11;;;;;;;2.70;1.00;;;;;;;4.75;100.00;94995.91;5039065;28;20207;-86
2021/12/05 13:18:40;;;;;;;1.80;0.87;;;;;;;4.66;100.00;94986.56;5019843;28;20219;-86
2021/12/05 13:21:10;;;;;;;1.93;1.17;;;;;;;4.70;100.00;94988.53;5025327;28;20207;-86
2021/12/05 13:23:42;;;;;;;1.77;1.03;;;;;;;4.78;100.00;95000.78;5057108;28;20227;-87
2021/12/05 13:26:26;;;;;;;2.10;1.30;;;;;;;4.83;100.00;94995.59;5051594;28;20202;-86
2021/12/05 13:28:58;;;;;;;2.57;1.40;;;;;;;4.85;100.00;94985.44;5019503;28;20426;-86
2021/12/05 13:31:36;;;;;;;1.43;1.23;;;;;;;4.90;100.00;94982.94;5018545;28;20208;-86
2021/12/05 13:34:36;;;;;;;2.67;1.17;;;;;;;4.96;100.00;94984.69;5054155;28;20292;-86
2021/12/05 13:37:36;;;;;;;2.73;1.27;;;;;;;4.96;100.00;94979.34;4945875;28;20213;-86
2021/12/05 13:40:20;;;;;;;3.63;1.40;;;;;;;4.97;100.00;94989.00;5015932;28;20269;-87
2021/12/05 13:42:51;;;;;;;1.33;1.00;;;;;;;4.94;100.00;94992.94;5054304;28;20210;-87
2021/12/05 13:45:41;;;;;;;2.17;1.13;;;;;;;4.87;100.00;94994.88;5037284;28;20227;-87
2021/12/05 13:48:25;;;;;;;4.07;1.50;;;;;;;4.86;100.00;95003.13;5024555;28;20229;-86
2021/12/05 13:50:57;;;;;;;2.50;1.10;;;;;;;4.81;100.00;95000.34;5024162;28;20297;-86
2021/12/05 13:53:28;;;;;;;3.07;1.20;;;;;;;4.84;100.00;95003.38;5026601;28;20211;-86
2021/12/05 13:56:06;;;;;;;1.77;1.10;;;;;;;4.80;98.64;94999.53;5059990;28;20238;-86
2021/12/05 13:58:40;;;;;;;2.07;1.47;;;;;;;4.76;100.00;94998.34;5025978;28;20207;-86
2021/12/05 14:01:12;;;;;;;1.87;1.30;;;;;;;4.82;100.00;94993.94;5025116;28;20225;-86
2021/12/05 14:03:44;;;;;;;3.47;1.30;;;;;;;4.76;100.00;94992.19;5044303;28;20191;-86
2021/12/05 14:06:38;;;;;;;2.43;1.20;;;;;;;4.73;100.00;94995.31;5029757;28;20309;-86
2021/12/05 14:09:13;;;;;;;1.73;1.20;;;;;;;4.64;100.00;94999.34;5044927;28;20203;-87
2021/12/05 14:11:55;;;;;;;1.57;0.93;;;;;;;4.60;100.00;95003.50;5026659;28;20230;-86
2021/12/05 14:14:24;;;;;;;1.40;1.10;;;;;;;4.53;100.00;94993.72;5021222;28;20206;-86
2021/12/05 14:16:55;;;;;;;2.73;1.20;;;;;;;4.55;100.00;94988.97;5053710;28;20213;-86
2021/12/05 14:19:26;;;;;;;1.40;1.20;;;;;;;4.59;100.00;94986.66;5026661;28;20230;-86
2021/12/05 14:21:56;;;;;;;1.97;1.17;;;;;;;4.65;100.00;94984.94;5027495;28;20272;-86
2021/12/05 14:24:26;;;;;;;2.50;1.90;;;;;;;4.64;100.00;94985.97;5028376;28;20203;-86
2021/12/05 14:26:58;;;;;;;1.60;1.50;;;;;;;4.64;100.00;94981.44;5023827;28;20207;-86
2021/12/05 14:29:27;;;;;;;5.27;2.73;;;;;;;4.64;100.00;94978.78;5023797;28;20216;-87
2021/12/05 14:31:57;;;;;;;1.70;1.20;;;;;;;4.70;100.00;94985.88;5029390;28;20301;-86
2021/12/05 14:34:25;;;;;;;2.43;1.10;;;;;;;4.68;100.00;94982.59;5028412;28;20206;-87
2021/12/05 14:36:56;;;;;;;1.73;1.20;;;;;;;4.65;100.00;94987.59;5045374;28;20206;-86
2021/12/05 14:39:28;;;;;;;1.93;1.20;;;;;;;4.66;100.00;94983.91;5028949;28;20258;-86
2021/12/05 14:42:01;;;;;;;2.30;1.23;;;;;;;4.55;100.00;94994.31;5021724;28;20234;-87
2021/12/05 14:44:30;;;;;;;1.40;0.90;;;;;;;4.48;100.00;94987.41;5024707;28;20226;-86
2021/12/05 14:47:02;;;;;;;2.33;1.43;;;;;;;4.36;100.00;94987.34;5022195;28;20253;-86
2021/12/05 14:49:32;;;;;;;1.97;1.20;;;;;;;4.24;100.00;94988.34;5040913;28;20203;-86
2021/12/05 14:52:02;;;;;;;2.07;1.00;;;;;;;4.16;100.00;94997.47;5028948;28;20214;-86
2021/12/05 14:54:35;;;;;;;2.40;1.30;;;;;;;4.09;100.00;95004.72;5015971;28;20295;-86
2021/12/05 14:57:09;;;;;;;1.10;1.00;;;;;;;4.04;100.00;95017.94;5028044;28;20245;-86
2021/12/05 14:59:38;;;;;;;1.27;1.00;;;;;;;3.97;100.00;95004.66;5027698;28;20541;-87
2021/12/05 15:02:06;;;;;;;2.43;1.10;;;;;;;4.01;100.00;95021.03;5046979;28;20212;-87
2021/12/05 15:04:41;;;;;;;3.10;1.20;;;;;;;4.03;100.00;95022.47;5028023;28;20296;-87
2021/12/05 15:07:09;;;;;;;3.07;1.60;;;;;;;4.07;100.00;95038.88;5043734;28;20236;-87
2021/12/05 15:09:39;;;;;;;2.70;1.10;;;;;;;4.06;100.00;95050.59;5020642;28;20206;-85
2021/12/05 15:12:12;;;;;;;3.30;1.93;;;;;;;4.01;100.00;95047.75;5038809;28;20394;-86
2021/12/05 15:14:42;;;;;;;3.33;1.80;;;;;;;3.97;100.00;95046.59;5060418;28;20207;-86
2021/12/05 15:17:12;;;;;;;2.67;1.20;;;;;;;4.04;100.00;95058.00;5035788;28;20209;-85
2021/12/05 15:19:43;;;;;;;3.53;1.30;;;;;;;3.98;100.00;95054.38;5028250;28;20223;-85
2021/12/05 15:22:13;;;;;;;2.43;1.17;;;;;;;3.97;100.00;95051.91;5026035;28;20207;-86
2021/12/05 15:24:41;;;;;;;1.10;1.00;;;;;;;3.95;100.00;95048.66;5037600;28;20283;-86
2021/12/05 15:27:16;;;;;;;2.20;0.90;;;;;;;3.93;100.00;95053.38;5028191;28;20195;-85
2021/12/05 15:29:49;;;;;;;1.30;1.00;;;;;;;3.94;100.00;95057.69;5027010;28;20300;-86
2021/12/05 15:32:19;;;;;;;2.13;1.13;;;;;;;3.91;100.00;95064.31;5024213;28;20203;-86
2021/12/05 15:34:50;;;;;;;3.80;1.30;;;;;;;3.85;100.00;95062.50;5020387;28;20206;-86
2021/12/05 15:37:23;;;;;;;5.00;1.10;;;;;;;3.87;100.00;95064.94;5043950;28;20207;-85
2021/12/05 15:39:52;;;;;;;3.10;1.17;;;;;;;3.89;100.00;95076.25;5043145;28;20309;-86
2021/12/05 15:42:25;;;;;;;3.63;1.30;;;;;;;3.78;100.00;95073.25;5061897;28;20215;-87
2021/12/05 15:44:54;;;;;;;1.50;1.20;;;;;;;3.83;100.00;95079.78;5023337;28;20253;-86
2021/12/05 15:47:27;;;;;;;4.27;1.50;;;;;;;3.79;100.00;95072.22;5026415;28;20263;-86
2021/12/05 15:50:01;;;;;;;2.10;1.20;;;;;;;3.77;100.00;95076.13;5027224;28;20199;-86
2021/12/05 15:52:38;;;;;;;1.50;1.20;;;;;;;3.78;100.00;95085.78;5024412;28;20233;-87
2021/12/05 15:55:10;;;;;;;2.53;1.03;;;;;;;3.74;100.00;95085.38;5055824;28;20309;-86